INFORMAÇÕES METEOROLÓGICAS
METAR FOR KCON
ADDS - METARS form results

(0259 UTC 19 September 2018)
Data provider http://aviationweather.gov/metar/data/
 
METAR text: KCON 190251Z AUTO 00000KT 3SM BR BKN002 19/19 A2978 RMK AO2 SLP082 T01940189 53008 $
Conditions at: KCON (CONCORD , NH, US) observed 0251 UTC 19 September 2018
Temperature: 19.4°C (67°F)
Dewpoint: 18.9°C (66°F) [RH = 97%]
Pressure (altimeter): 29.78 inches Hg (1008.5 mb)
[Sea-level pressure: 1008.2 mb]
Winds: calm
Visibility: 3 miles ( 5 km)
Ceiling: 200 feet AGL
Clouds: broken clouds at 200 feet AGL
Weather: BR  (mist)
SOME DATA ABOVE MAY BE INACCURATE!!!
"$" is an indication the sensor requires maintenance

METAR text: KCON 190246Z AUTO 00000KT 2 1/2SM BR BKN002 19/19 A2978 RMK AO2 VIS 1 3/4V5 $
Conditions at: KCON (CONCORD , NH, US) observed 0246 UTC 19 September 2018
Temperature: 19.0°C (66°F)
Dewpoint: 19.0°C (66°F) [RH = 100%]
Pressure (altimeter): 29.78 inches Hg (1008.5 mb)
Winds: calm
Visibility: 2.50 miles (4.02 km)
Ceiling: 200 feet AGL
Clouds: broken clouds at 200 feet AGL
Weather: BR  (mist)
SOME DATA ABOVE MAY BE INACCURATE!!!
"$" is an indication the sensor requires maintenance

METAR text: KCON 190240Z AUTO 00000KT 3SM BR SCT002 19/19 A2977 RMK AO2 T01940189 $
Conditions at: KCON (CONCORD , NH, US) observed 0240 UTC 19 September 2018
Temperature: 19.4°C (67°F)
Dewpoint: 18.9°C (66°F) [RH = 97%]
Pressure (altimeter): 29.77 inches Hg (1008.2 mb)
Winds: calm
Visibility: 3 miles ( 5 km)
Ceiling: at least 12,000 feet AGL
Clouds: scattered clouds at 200 feet AGL
Weather: BR  (mist)
SOME DATA ABOVE MAY BE INACCURATE!!!
"$" is an indication the sensor requires maintenance

METAR text: KCON 190236Z AUTO 00000KT 1 1/2SM BR FEW002 19/19 A2977 RMK AO2 T01940189 $
Conditions at: KCON (CONCORD , NH, US) observed 0236 UTC 19 September 2018
Temperature: 19.4°C (67°F)
Dewpoint: 18.9°C (66°F) [RH = 97%]
Pressure (altimeter): 29.77 inches Hg (1008.2 mb)
Winds: calm
Visibility: 1.50 miles (2.41 km)
Ceiling: at least 12,000 feet AGL
Clouds: few clouds at 200 feet AGL
Weather: BR  (mist)
SOME DATA ABOVE MAY BE INACCURATE!!!
"$" is an indication the sensor requires maintenance

METAR text: KCON 190214Z AUTO 00000KT 1SM BR VV002 19/19 A2976 RMK AO2 T01940194 $
Conditions at: KCON (CONCORD , NH, US) observed 0214 UTC 19 September 2018
Temperature: 19.4°C (67°F)
Dewpoint: 19.4°C (67°F) [RH = 100%]
Pressure (altimeter): 29.76 inches Hg (1007.9 mb)
Winds: calm
Visibility: 1.00 miles (1.61 km)
Ceiling: indefinite ceiling with vertical visibility of 200 feet AGL
Clouds: obscured sky
Weather: BR  (mist)
SOME DATA ABOVE MAY BE INACCURATE!!!
"$" is an indication the sensor requires maintenance

METAR text: KCON 190212Z AUTO 00000KT 1 1/2SM BR CLR 19/19 A2976 RMK AO2 T01940194 $
Conditions at: KCON (CONCORD , NH, US) observed 0212 UTC 19 September 2018
Temperature: 19.4°C (67°F)
Dewpoint: 19.4°C (67°F) [RH = 100%]
Pressure (altimeter): 29.76 inches Hg (1007.9 mb)
Winds: calm
Visibility: 1.50 miles (2.41 km)
Ceiling: at least 12,000 feet AGL
Clouds: sky clear below 12,000 feet AGL
Weather: BR  (mist)
SOME DATA ABOVE MAY BE INACCURATE!!!
"$" is an indication the sensor requires maintenance

Forecast for: KCON (CONCORD , NH, US)
Text: KCON 182335Z 1900/1924 VRB03KT P6SM SCT080
Forecast period: 0000 to 0700 UTC 19 September 2018
Forecast type: FROM: standard forecast or significant change
Winds: variable direction winds at 3 MPH (3 knots; 1.5 m/s)
Visibility: 6 or more miles 10+ km)
Ceiling: at least 12,000 feet AGL
Clouds: scattered clouds at 8000 feet AGL
Weather: no significant weather forecast for this period
Text: FM190700 01005KT P6SM BKN025
Forecast period: 0700 to 1600 UTC 19 September 2018
Forecast type: FROM: standard forecast or significant change
Winds: from the N (10 degrees) at 6 MPH (5 knots; 2.6 m/s)
Visibility: 6 or more miles 10+ km)
Ceiling: 2500 feet AGL
Clouds: broken clouds at 2500 feet AGL
Weather: no significant weather forecast for this period
Text: FM191600 03006KT P6SM BKN040
Forecast period: 1600 UTC 19 September 2018 to 0000 UTC 20 September 2018
Forecast type: FROM: standard forecast or significant change
Winds: from the NNE (30 degrees) at 7 MPH (6 knots; 3.1 m/s)
Visibility: 6 or more miles 10+ km)
Ceiling: 4000 feet AGL
Clouds: broken clouds at 4000 feet AGL
Weather: no significant weather forecast for this period

 MAPA DO AEROPORTO

 INFORMAÇÕES DA PISTA
Pista 03 Tamanho da pista 3999 ft Largura da pista 150 ft
Elevação da pista 336 ft Ranhura da pista 440 ft Proa da pista 15
Pista 21 Tamanho da pista 3999 ft Largura da pista 150 ft
Elevação da pista 346 ft Ranhura da pista 0 ft Proa da pista 195
Pista 12 Tamanho da pista 3200 ft Largura da pista 75 ft
Elevação da pista 340 ft Ranhura da pista 0 ft Proa da pista 105
Pista 30 Tamanho da pista 3200 ft Largura da pista 75 ft
Elevação da pista 346 ft Ranhura da pista 0 ft Proa da pista 285
Pista 17 Tamanho da pista 6005 ft Largura da pista 100 ft
Elevação da pista 340 ft Ranhura da pista 640 ft Proa da pista 155
Pista 35 Tamanho da pista 6005 ft Largura da pista 100 ft
Elevação da pista 332 ft Ranhura da pista 0 ft Proa da pista 335

 FREQUÊNCIAS DO AEROPORTO
Tipo A/D Nome BOSTON APP Frequência 127.35 MHZ
Tipo ASOS Nome ASOS Frequência 132.32 MHZ
Tipo CLD Nome CLNC DEL Frequência 133.65 MHZ
Tipo OPS Nome ARNG OPS Frequência 32.1 MHZ
Tipo RDO Nome BANGOR RDO Frequência 122.3 MHZ
Tipo UNIC Nome CTAF/UNICO Frequência 122.7 MHZ

 AUXÍLIOS DE NAVEGAÇÃO PRÓXIMOS AO AEROPORTO





Powered by Virtual Airlines Manager [v2.6.2]